Time;durP1;ratioP1;P1;durP2;ratioP2;P2;SDS_P1;SDS_P2;PMS_P1;PMS_P2;Temp;Humidity;BMP_temperature;BMP_pressure;BME280_temperature;BME280_humidity;BME280_pressure;Samples;Min_cycle;Max_cycle;Signal;HPM_P1;HPM_P2
2023/08/02 00:00:50;;;;;;;3.50;2.30;;;15.00;99.90;;;;;;5056322;28;20084;-79
2023/08/02 00:03:15;;;;;;;5.50;2.70;;;15.00;99.90;;;;;;5073777;28;20080;-79
2023/08/02 00:05:41;;;;;;;5.07;2.42;;;15.10;99.90;;;;;;5072385;28;20047;-79
2023/08/02 00:08:06;;;;;;;4.75;2.50;;;15.00;99.90;;;;;;5072101;28;20051;-80
2023/08/02 00:10:36;;;;;;;5.05;2.60;;;15.00;99.90;;;;;;5073600;28;20110;-79
2023/08/02 00:13:02;;;;;;;5.22;2.60;;;15.00;99.90;;;;;;5073287;28;20101;-79
2023/08/02 00:15:28;;;;;;;5.10;2.13;;;15.00;99.90;;;;;;5072265;28;20052;-78
2023/08/02 00:17:53;;;;;;;4.95;2.70;;;15.00;99.90;;;;;;5073586;28;20497;-78
2023/08/02 00:20:19;;;;;;;5.65;2.35;;;15.00;99.90;;;;;;5073158;28;20515;-78
2023/08/02 00:22:45;;;;;;;5.78;2.45;;;15.00;99.90;;;;;;5073654;28;20098;-79
2023/08/02 00:25:10;;;;;;;7.03;2.55;;;15.00;99.90;;;;;;5072364;28;20044;-78
2023/08/02 00:27:36;;;;;;;4.35;2.35;;;15.00;99.90;;;;;;5073359;28;20052;-78
2023/08/02 00:30:02;;;;;;;6.75;2.17;;;15.00;99.90;;;;;;5072241;28;20392;-77
2023/08/02 00:32:27;;;;;;;3.33;2.10;;;15.00;99.90;;;;;;5072191;28;20106;-77
2023/08/02 00:34:54;;;;;;;8.93;2.25;;;15.10;99.90;;;;;;5073392;28;20444;-78
2023/08/02 00:37:23;;;;;;;7.03;2.60;;;15.00;99.90;;;;;;5072767;28;20056;-78
2023/08/02 00:39:51;;;;;;;4.40;2.30;;;15.00;99.90;;;;;;5073154;28;20044;-77
2023/08/02 00:42:17;;;;;;;4.38;2.38;;;15.00;99.90;;;;;;5072160;28;20049;-78
2023/08/02 00:44:42;;;;;;;4.07;2.67;;;15.00;99.90;;;;;;5073255;28;20477;-78
2023/08/02 00:47:08;;;;;;;5.00;2.47;;;15.00;99.90;;;;;;5073005;28;20059;-77
2023/08/02 00:49:34;;;;;;;4.22;2.35;;;15.10;99.90;;;;;;5072513;28;20055;-78
2023/08/02 00:51:59;;;;;;;5.85;2.40;;;15.10;99.90;;;;;;5071866;28;20500;-78
2023/08/02 00:54:25;;;;;;;7.50;2.42;;;15.00;99.90;;;;;;5071877;28;20182;-78
2023/08/02 00:56:51;;;;;;;5.28;2.72;;;15.10;99.90;;;;;;5073180;28;20048;-78
2023/08/02 00:59:16;;;;;;;3.47;2.38;;;15.10;99.90;;;;;;5072634;28;20135;-78
2023/08/02 01:01:43;;;;;;;3.13;2.00;;;15.10;99.90;;;;;;5072814;28;20048;-78
2023/08/02 01:04:08;;;;;;;9.40;2.67;;;15.10;99.90;;;;;;5072987;28;20055;-79
2023/08/02 01:07:00;;;;;;;5.75;2.47;;;15.00;99.90;;;;;;5072110;28;20485;-78
2023/08/02 01:09:42;;;;;;;8.32;2.88;;;15.10;99.90;;;;;;5070562;28;20063;-78
2023/08/02 01:12:10;;;;;;;6.55;2.55;;;15.10;99.90;;;;;;5071640;28;20048;-78
2023/08/02 01:14:41;;;;;;;4.85;2.47;;;15.10;99.90;;;;;;5072794;28;20060;-78
2023/08/02 01:17:08;;;;;;;6.40;2.67;;;15.10;99.90;;;;;;5072894;28;20059;-80
2023/08/02 01:19:33;;;;;;;4.35;2.90;;;15.10;99.90;;;;;;5071992;28;20047;-79
2023/08/02 01:21:59;;;;;;;6.80;2.97;;;15.10;99.90;;;;;;5072964;28;20041;-79
2023/08/02 01:24:32;;;;;;;7.97;2.78;;;15.10;99.90;;;;;;5071626;28;20539;-79
2023/08/02 01:27:04;;;;;;;6.55;2.60;;;15.10;99.90;;;;;;5075843;28;20052;-79
2023/08/02 01:29:31;;;;;;;4.82;2.50;;;15.10;99.90;;;;;;5076824;28;20041;-80
2023/08/02 01:31:59;;;;;;;5.85;2.90;;;15.10;99.90;;;;;;5076673;28;20123;-80
2023/08/02 01:34:25;;;;;;;5.13;2.70;;;15.10;99.90;;;;;;5076818;28;20109;-80
2023/08/02 01:36:51;;;;;;;7.90;2.92;;;15.10;99.90;;;;;;5076457;28;20131;-80
2023/08/02 01:39:17;;;;;;;6.03;3.05;;;15.10;99.90;;;;;;5075355;28;20124;-79
2023/08/02 01:41:42;;;;;;;4.15;2.63;;;15.10;99.90;;;;;;5075656;28;20460;-79
2023/08/02 01:44:08;;;;;;;5.65;2.60;;;15.10;99.90;;;;;;5076568;28;20388;-78
2023/08/02 01:46:34;;;;;;;6.05;3.15;;;15.10;99.90;;;;;;5076531;28;20044;-79
2023/08/02 01:49:00;;;;;;;5.05;2.72;;;15.10;99.90;;;;;;5074930;28;20059;-79
2023/08/02 01:51:26;;;;;;;4.45;2.63;;;15.10;99.90;;;;;;5076368;28;20040;-78
2023/08/02 01:53:51;;;;;;;6.95;3.00;;;15.10;99.90;;;;;;5075253;28;20056;-78
2023/08/02 01:56:17;;;;;;;7.57;3.10;;;15.10;99.90;;;;;;5076440;28;20048;-79
2023/08/02 01:58:43;;;;;;;7.68;2.67;;;15.10;99.90;;;;;;5075151;28;20048;-79
2023/08/02 02:01:09;;;;;;;6.38;2.70;;;15.10;99.90;;;;;;5075072;28;20037;-79
2023/08/02 02:03:34;;;;;;;5.57;2.63;;;15.10;99.90;;;;;;5075133;28;20068;-78
2023/08/02 02:06:00;;;;;;;11.70;3.30;;;15.10;99.90;;;;;;5075168;28;20110;-78
2023/08/02 02:08:26;;;;;;;4.68;2.65;;;15.10;99.90;;;;;;5075105;28;20481;-77
2023/08/02 02:10:53;;;;;;;11.98;3.33;;;15.10;99.90;;;;;;5075616;28;20055;-77
2023/08/02 02:13:22;;;;;;;7.00;2.90;;;15.10;99.90;;;;;;5075591;28;20491;-77
2023/08/02 02:15:48;;;;;;;4.78;2.58;;;15.20;99.90;;;;;;5074940;28;20041;-77
2023/08/02 02:18:14;;;;;;;5.47;2.88;;;15.10;99.90;;;;;;5075898;28;20055;-77
2023/08/02 02:20:39;;;;;;;6.35;2.95;;;15.10;99.90;;;;;;5075339;28;20560;-77
2023/08/02 02:23:05;;;;;;;6.20;2.83;;;15.10;99.90;;;;;;5074533;28;20045;-77
2023/08/02 02:25:31;;;;;;;6.82;3.17;;;15.10;99.90;;;;;;5075742;28;20538;-77
2023/08/02 02:27:57;;;;;;;7.43;2.90;;;15.10;99.90;;;;;;5076677;28;20051;-79
2023/08/02 02:30:22;;;;;;;7.13;3.17;;;15.10;99.90;;;;;;5077933;28;20501;-76
2023/08/02 02:32:48;;;;;;;7.35;3.47;;;15.10;99.90;;;;;;5076928;28;20087;-78
2023/08/02 02:35:14;;;;;;;10.75;3.33;;;15.10;99.90;;;;;;5076472;28;20619;-77
2023/08/02 02:37:41;;;;;;;8.60;2.85;;;15.10;99.90;;;;;;5075080;28;20044;-77
2023/08/02 02:40:08;;;;;;;6.05;3.00;;;15.10;99.90;;;;;;5074055;28;20055;-78
2023/08/02 02:42:34;;;;;;;7.13;3.03;;;15.10;99.90;;;;;;5074618;28;20131;-77
2023/08/02 02:45:00;;;;;;;7.72;3.72;;;15.10;99.90;;;;;;5075362;28;20378;-77
2023/08/02 02:47:26;;;;;;;9.82;3.60;;;15.10;99.90;;;;;;5075130;28;20047;-77
2023/08/02 02:49:52;;;;;;;6.50;3.33;;;15.00;99.90;;;;;;5073320;28;20052;-77
2023/08/02 02:52:17;;;;;;;7.68;3.05;;;15.00;99.90;;;;;;5075283;28;20063;-78
2023/08/02 02:54:43;;;;;;;9.38;3.10;;;15.00;99.90;;;;;;5074292;28;20040;-77
2023/08/02 02:57:09;;;;;;;7.10;2.70;;;15.00;99.90;;;;;;5074131;28;20045;-77
2023/08/02 02:59:36;;;;;;;6.05;2.78;;;15.00;99.90;;;;;;5074869;28;20095;-78
2023/08/02 03:02:01;;;;;;;5.85;3.10;;;14.90;99.90;;;;;;5073703;28;20482;-78
2023/08/02 03:04:27;;;;;;;7.32;3.20;;;15.00;99.90;;;;;;5075028;28;20093;-79
2023/08/02 03:06:53;;;;;;;6.70;2.80;;;14.90;99.90;;;;;;5073931;28;20083;-75
2023/08/02 03:09:19;;;;;;;6.68;3.10;;;14.90;99.90;;;;;;5074900;28;20082;-75
2023/08/02 03:11:46;;;;;;;10.20;2.97;;;14.90;99.90;;;;;;5073573;28;20049;-75
2023/08/02 03:14:12;;;;;;;8.43;2.95;;;14.80;99.90;;;;;;5074709;28;20048;-75
2023/08/02 03:16:37;;;;;;;10.88;3.45;;;14.80;99.90;;;;;;5073826;28;20048;-77
2023/08/02 03:19:04;;;;;;;6.95;3.65;;;14.70;99.90;;;;;;5073352;28;20419;-76
2023/08/02 03:21:30;;;;;;;8.93;3.55;;;14.70;99.90;;;;;;5074650;28;20093;-77
2023/08/02 03:23:56;;;;;;;8.35;3.55;;;14.60;99.90;;;;;;5074634;28;20048;-76
2023/08/02 03:26:21;;;;;;;6.85;2.97;;;14.60;99.90;;;;;;5073131;28;20052;-76
2023/08/02 03:28:47;;;;;;;8.88;3.17;;;14.50;99.90;;;;;;5074282;28;20048;-76
2023/08/02 03:31:13;;;;;;;6.03;3.17;;;14.50;99.90;;;;;;5073263;28;20047;-76
2023/08/02 03:33:38;;;;;;;8.82;3.85;;;14.50;99.90;;;;;;5072632;28;20059;-76
2023/08/02 03:36:04;;;;;;;7.18;3.42;;;14.50;99.90;;;;;;5073322;28;20063;-76
2023/08/02 03:38:30;;;;;;;6.13;3.72;;;14.40;99.90;;;;;;5074413;28;20052;-76
2023/08/02 03:40:56;;;;;;;8.10;3.50;;;14.40;99.90;;;;;;5073208;28;20431;-77
2023/08/02 03:43:21;;;;;;;6.53;3.63;;;14.40;99.90;;;;;;5073953;28;20216;-77
2023/08/02 03:45:49;;;;;;;8.23;3.63;;;14.40;99.90;;;;;;5073665;28;20048;-77
2023/08/02 03:48:16;;;;;;;5.70;3.10;;;14.40;99.90;;;;;;5071522;28;20143;-76
2023/08/02 03:50:42;;;;;;;9.15;3.83;;;14.40;99.90;;;;;;5072624;28;20076;-77
2023/08/02 03:53:07;;;;;;;6.93;3.58;;;14.40;99.90;;;;;;5072072;28;20057;-77
2023/08/02 03:55:33;;;;;;;6.47;3.42;;;14.40;99.90;;;;;;5072295;28;20059;-76
2023/08/02 03:57:59;;;;;;;8.00;3.92;;;14.30;99.90;;;;;;5072278;28;20048;-77
2023/08/02 04:00:24;;;;;;;10.20;3.92;;;14.40;99.90;;;;;;5073718;28;20489;-76
2023/08/02 04:02:50;;;;;;;7.65;4.07;;;14.30;99.90;;;;;;5072906;28;20051;-76
2023/08/02 04:05:16;;;;;;;7.32;3.70;;;14.30;99.90;;;;;;5073850;28;20051;-76
2023/08/02 04:07:42;;;;;;;7.18;3.38;;;14.30;99.90;;;;;;5072514;28;20051;-76
2023/08/02 04:10:08;;;;;;;10.48;4.07;;;14.30;99.90;;;;;;5073336;28;20045;-76
2023/08/02 04:12:34;;;;;;;9.05;3.70;;;14.30;99.90;;;;;;5073628;28;20051;-75
2023/08/02 04:15:00;;;;;;;8.68;3.75;;;14.30;99.90;;;;;;5072585;28;20044;-76
2023/08/02 04:17:25;;;;;;;9.00;4.18;;;14.30;99.90;;;;;;5073501;28;20523;-76
2023/08/02 04:19:51;;;;;;;7.68;3.67;;;14.30;99.90;;;;;;5071746;28;20448;-78
2023/08/02 04:22:17;;;;;;;7.05;3.60;;;14.30;99.90;;;;;;5072489;28;20133;-76
2023/08/02 04:24:42;;;;;;;6.45;3.80;;;14.30;99.90;;;;;;5072544;28;20045;-77
2023/08/02 04:27:08;;;;;;;6.68;3.63;;;14.30;99.90;;;;;;5071826;28;20052;-77
2023/08/02 04:29:34;;;;;;;8.30;3.55;;;14.30;99.90;;;;;;5073497;28;20047;-77
2023/08/02 04:31:59;;;;;;;7.03;3.70;;;14.30;99.90;;;;;;5072194;28;20080;-77
2023/08/02 04:34:25;;;;;;;7.88;3.70;;;14.30;99.90;;;;;;5072892;28;20452;-76
2023/08/02 04:36:52;;;;;;;6.50;4.15;;;14.30;99.90;;;;;;5073280;28;20080;-78
2023/08/02 04:39:18;;;;;;;8.98;3.83;;;14.30;99.90;;;;;;5072171;28;20044;-76
2023/08/02 04:41:43;;;;;;;7.93;4.10;;;14.30;99.90;;;;;;5073246;28;20046;-76
2023/08/02 04:44:09;;;;;;;8.10;4.00;;;14.30;99.90;;;;;;5073254;28;20052;-76
2023/08/02 04:46:35;;;;;;;7.47;3.45;;;14.30;99.90;;;;;;5072962;28;20378;-76
2023/08/02 04:49:00;;;;;;;6.95;3.90;;;14.30;99.90;;;;;;5072592;28;20228;-75
2023/08/02 04:51:26;;;;;;;5.85;3.17;;;14.40;99.90;;;;;;5072886;28;20040;-75
2023/08/02 04:53:52;;;;;;;7.28;4.53;;;14.40;99.90;;;;;;5073031;28;20477;-75
2023/08/02 04:56:17;;;;;;;5.95;3.50;;;14.40;99.90;;;;;;5073078;28;20083;-76
2023/08/02 04:58:43;;;;;;;6.13;3.42;;;14.40;99.90;;;;;;5073143;28;20055;-77
2023/08/02 05:01:09;;;;;;;6.82;3.58;;;14.40;99.90;;;;;;5070859;28;20041;-76
2023/08/02 05:03:36;;;;;;;5.95;3.45;;;14.50;99.90;;;;;;5072937;28;20093;-77
2023/08/02 05:06:03;;;;;;;5.30;3.08;;;14.50;99.90;;;;;;5072811;28;20202;-76
2023/08/02 05:08:31;;;;;;;5.97;3.35;;;14.50;99.90;;;;;;5055009;28;20052;-76
2023/08/02 05:10:57;;;;;;;5.90;3.08;;;14.60;99.90;;;;;;5072895;28;20045;-76
2023/08/02 05:13:24;;;;;;;7.32;3.63;;;14.60;99.90;;;;;;5072749;28;20048;-76
2023/08/02 05:15:51;;;;;;;6.72;3.17;;;14.60;99.90;;;;;;5071857;28;20052;-76
2023/08/02 05:18:16;;;;;;;6.30;2.97;;;14.60;99.90;;;;;;5072601;28;20598;-77
2023/08/02 05:20:42;;;;;;;8.35;3.63;;;14.60;99.90;;;;;;5072282;28;20053;-77
2023/08/02 05:23:08;;;;;;;7.13;3.50;;;14.70;99.90;;;;;;5055121;28;20396;-77
2023/08/02 05:25:35;;;;;;;7.35;3.40;;;14.70;99.90;;;;;;5072606;28;20040;-76
2023/08/02 05:28:02;;;;;;;5.63;3.95;;;14.70;99.90;;;;;;5055187;28;20060;-76
2023/08/02 05:30:28;;;;;;;8.13;3.97;;;14.80;99.90;;;;;;5072630;28;20123;-76
2023/08/02 05:32:54;;;;;;;6.88;3.38;;;14.80;99.90;;;;;;5072890;28;20041;-78
2023/08/02 05:35:21;;;;;;;6.53;3.42;;;14.80;99.90;;;;;;5071249;28;20386;-77
2023/08/02 05:37:46;;;;;;;6.80;2.83;;;14.80;99.90;;;;;;5071237;28;20470;-77
2023/08/02 05:40:12;;;;;;;6.65;3.00;;;14.80;99.90;;;;;;5072515;28;20040;-77
2023/08/02 05:42:38;;;;;;;6.97;3.33;;;14.90;99.90;;;;;;5071243;28;20239;-78
2023/08/02 05:45:04;;;;;;;6.40;3.38;;;14.90;99.90;;;;;;5072601;28;20123;-77
2023/08/02 05:47:31;;;;;;;7.90;3.40;;;15.00;99.90;;;;;;5072143;28;20137;-77
2023/08/02 05:49:56;;;;;;;6.50;3.65;;;15.10;99.90;;;;;;5070680;28;20497;-77
2023/08/02 05:52:22;;;;;;;5.82;3.17;;;15.10;99.90;;;;;;5071210;28;20078;-77
2023/08/02 05:54:48;;;;;;;6.00;3.40;;;15.20;99.90;;;;;;5072284;28;20057;-77
2023/08/02 05:57:14;;;;;;;4.78;2.63;;;15.20;99.90;;;;;;5054921;28;20487;-78
2023/08/02 05:59:39;;;;;;;6.75;2.75;;;15.30;99.90;;;;;;5071959;28;20048;-77
2023/08/02 06:02:06;;;;;;;7.63;3.00;;;15.40;99.90;;;;;;5071380;28;20128;-77
2023/08/02 06:04:38;;;;;;;5.68;2.90;;;15.50;99.90;;;;;;5072404;28;20051;-77
2023/08/02 06:07:04;;;;;;;9.88;2.95;;;15.60;99.90;;;;;;5072268;28;20595;-77
2023/08/02 06:09:30;;;;;;;4.97;2.67;;;15.60;99.90;;;;;;5072107;28;20405;-69
2023/08/02 06:11:56;;;;;;;5.20;3.10;;;15.70;99.90;;;;;;5073678;28;20043;-69
2023/08/02 06:14:22;;;;;;;7.28;2.70;;;15.60;99.90;;;;;;5074963;28;20041;-68
2023/08/02 06:16:48;;;;;;;7.40;3.30;;;15.70;99.90;;;;;;5076306;28;20127;-68
2023/08/02 06:19:13;;;;;;;4.93;2.47;;;15.70;99.90;;;;;;5075557;28;20111;-69
2023/08/02 06:21:39;;;;;;;5.05;2.35;;;15.80;99.90;;;;;;5074843;28;20174;-68
2023/08/02 06:24:05;;;;;;;4.80;2.30;;;15.90;99.90;;;;;;5075811;28;20040;-68
2023/08/02 06:26:32;;;;;;;6.22;2.60;;;16.00;99.90;;;;;;5075771;28;20044;-69
2023/08/02 06:28:58;;;;;;;6.63;2.80;;;16.00;99.90;;;;;;5075570;28;20040;-69
2023/08/02 06:31:23;;;;;;;4.82;2.58;;;16.10;99.90;;;;;;5075510;28;20043;-68
2023/08/02 06:33:49;;;;;;;3.47;2.35;;;16.10;99.90;;;;;;5075451;28;20098;-68
2023/08/02 06:36:15;;;;;;;5.43;2.60;;;16.10;99.90;;;;;;5075558;28;20079;-68
2023/08/02 06:38:40;;;;;;;3.20;2.22;;;16.10;99.90;;;;;;5075539;28;20095;-68
2023/08/02 06:41:06;;;;;;;4.75;2.17;;;16.00;99.90;;;;;;5075665;28;20036;-69
2023/08/02 06:43:32;;;;;;;4.85;2.25;;;16.10;99.90;;;;;;5075479;28;20040;-68
2023/08/02 06:45:58;;;;;;;6.05;2.60;;;16.10;99.90;;;;;;5074487;28;20080;-69
2023/08/02 06:48:25;;;;;;;4.63;2.03;;;16.10;99.90;;;;;;5075377;28;20041;-68
2023/08/02 06:50:52;;;;;;;4.25;2.15;;;16.10;99.90;;;;;;5074723;28;20677;-68
2023/08/02 06:53:18;;;;;;;6.18;2.10;;;16.10;99.90;;;;;;5075354;28;20047;-68
2023/08/02 06:55:44;;;;;;;6.25;2.17;;;16.00;99.90;;;;;;5075148;28;20036;-69
2023/08/02 06:58:10;;;;;;;6.40;2.72;;;15.90;99.90;;;;;;5075196;28;20044;-69
2023/08/02 07:00:36;;;;;;;3.72;2.00;;;16.00;99.90;;;;;;5075210;28;20484;-69
2023/08/02 07:03:03;;;;;;;6.35;2.15;;;15.90;99.90;;;;;;5074023;28;20037;-69
2023/08/02 07:05:30;;;;;;;4.45;2.40;;;15.90;99.90;;;;;;5066708;28;20170;-70
2023/08/02 07:07:56;;;;;;;5.03;2.17;;;15.90;99.90;;;;;;5063381;28;20032;-69
2023/08/02 07:10:22;;;;;;;5.65;2.30;;;15.80;99.90;;;;;;5072658;28;20040;-70
2023/08/02 07:12:51;;;;;;;4.68;2.53;;;15.80;99.90;;;;;;5073992;28;20040;-69
2023/08/02 07:15:17;;;;;;;4.53;2.25;;;15.80;99.90;;;;;;5073422;28;20072;-69
2023/08/02 07:17:44;;;;;;;4.25;2.70;;;15.80;99.90;;;;;;5073764;28;20047;-69
2023/08/02 07:20:13;;;;;;;5.00;3.22;;;15.80;99.90;;;;;;5073530;28;20079;-70
2023/08/02 07:22:42;;;;;;;5.47;2.47;;;15.80;99.90;;;;;;5073888;28;20040;-70
2023/08/02 07:25:08;;;;;;;4.63;2.38;;;15.80;99.90;;;;;;5058042;28;20461;-71
2023/08/02 07:27:34;;;;;;;4.80;2.00;;;15.90;99.90;;;;;;5072234;28;20056;-69
2023/08/02 07:29:59;;;;;;;3.95;2.35;;;15.90;99.90;;;;;;5074142;28;20040;-69
2023/08/02 07:32:25;;;;;;;3.08;1.90;;;16.00;99.90;;;;;;5074186;28;20037;-69
2023/08/02 07:34:52;;;;;;;3.72;1.95;;;16.00;99.90;;;;;;5073456;28;20056;-69
2023/08/02 07:37:18;;;;;;;4.05;1.90;;;16.10;99.90;;;;;;5073828;28;20056;-70
2023/08/02 07:39:44;;;;;;;4.63;2.00;;;16.00;99.90;;;;;;5072979;28;20044;-69
2023/08/02 07:42:10;;;;;;;4.28;2.03;;;16.00;99.90;;;;;;5055787;28;20151;-70
2023/08/02 07:44:37;;;;;;;5.63;2.13;;;16.00;99.90;;;;;;5073783;28;20048;-70
2023/08/02 07:47:04;;;;;;;6.15;2.03;;;15.90;99.90;;;;;;5053502;28;20044;-79
2023/08/02 07:49:31;;;;;;;4.75;2.10;;;15.90;99.90;;;;;;5053128;28;20045;-80
2023/08/02 07:51:57;;;;;;;4.60;2.08;;;15.90;99.90;;;;;;5072920;28;20381;-79
2023/08/02 07:54:23;;;;;;;4.13;2.00;;;15.90;99.90;;;;;;5072616;28;20036;-78
2023/08/02 07:56:48;;;;;;;3.95;1.92;;;15.90;99.90;;;;;;5073279;28;20544;-76
2023/08/02 07:59:14;;;;;;;5.28;2.00;;;15.80;99.90;;;;;;5072203;28;20181;-78
2023/08/02 08:01:43;;;;;;;3.70;1.85;;;15.70;99.90;;;;;;5073187;28;20055;-78
2023/08/02 08:04:09;;;;;;;4.30;1.88;;;15.70;99.90;;;;;;5072930;28;20137;-78
2023/08/02 08:06:35;;;;;;;3.58;2.00;;;15.70;99.90;;;;;;5073244;28;20040;-79
2023/08/02 08:09:01;;;;;;;4.25;1.90;;;15.60;99.90;;;;;;5072514;28;20063;-82
2023/08/02 08:11:28;;;;;;;6.60;2.08;;;15.60;99.90;;;;;;5072929;28;20061;-81
2023/08/02 08:13:54;;;;;;;5.78;2.30;;;15.60;99.90;;;;;;5072359;28;20123;-83
2023/08/02 08:16:20;;;;;;;5.50;2.10;;;15.50;99.90;;;;;;5073069;28;20049;-84
2023/08/02 08:18:46;;;;;;;5.93;2.13;;;15.50;99.90;;;;;;5071813;28;20123;-82
2023/08/02 08:21:11;;;;;;;5.35;2.30;;;15.50;99.90;;;;;;5072809;28;20048;-81
2023/08/02 08:23:37;;;;;;;6.63;2.17;;;15.50;99.90;;;;;;5055604;28;20052;-79
2023/08/02 08:26:03;;;;;;;6.35;2.28;;;15.50;99.90;;;;;;5071768;28;20048;-79
2023/08/02 08:28:29;;;;;;;5.55;2.35;;;15.50;99.90;;;;;;5071429;28;20264;-80
2023/08/02 08:31:02;;;;;;;5.10;2.63;;;15.60;99.90;;;;;;5067434;28;20044;-77
2023/08/02 08:33:29;;;;;;;4.47;2.45;;;15.60;99.90;;;;;;5051073;28;20075;-79
2023/08/02 08:35:55;;;;;;;5.30;2.33;;;15.60;99.90;;;;;;5062996;28;20044;-81
2023/08/02 08:38:21;;;;;;;5.40;2.63;;;15.60;99.90;;;;;;5072484;28;20106;-82
2023/08/02 08:40:54;;;;;;;5.03;2.65;;;15.60;99.90;;;;;;5054710;28;20127;-80
2023/08/02 08:43:20;;;;;;;12.27;2.90;;;15.60;99.90;;;;;;5071604;28;20048;-80
2023/08/02 08:45:46;;;;;;;6.00;3.00;;;15.60;99.90;;;;;;5072696;28;20052;-79
2023/08/02 08:48:12;;;;;;;6.00;2.60;;;15.70;99.90;;;;;;5071465;28;20040;-81
2023/08/02 08:50:44;;;;;;;5.72;2.50;;;15.80;99.90;;;;;;5070925;28;20362;-80
2023/08/02 08:53:17;;;;;;;6.53;2.83;;;15.80;99.90;;;;;;5071794;28;20044;-82
2023/08/02 08:55:47;;;;;;;4.85;2.80;;;16.00;99.90;;;;;;5072269;28;20041;-82
2023/08/02 08:58:13;;;;;;;5.22;2.30;;;16.10;99.90;;;;;;5072259;28;20045;-81
2023/08/02 09:00:39;;;;;;;7.60;3.00;;;16.20;99.90;;;;;;5072181;28;20052;-81
2023/08/02 09:03:05;;;;;;;6.90;2.72;;;16.30;99.90;;;;;;5072733;28;20044;-78
2023/08/02 09:05:31;;;;;;;4.40;2.45;;;16.40;99.90;;;;;;5054454;28;20473;-81
2023/08/02 09:08:00;;;;;;;6.70;2.67;;;16.50;99.90;;;;;;5054683;28;20041;-80
2023/08/02 09:10:27;;;;;;;5.75;2.83;;;16.50;99.90;;;;;;5071745;28;20091;-79
2023/08/02 09:12:52;;;;;;;6.65;2.65;;;16.40;99.90;;;;;;5072737;28;20036;-79
2023/08/02 09:15:18;;;;;;;4.18;2.42;;;16.30;99.90;;;;;;5071769;28;20075;-81
2023/08/02 09:17:52;;;;;;;5.43;2.53;;;16.30;99.90;;;;;;5069499;28;20480;-80
2023/08/02 09:20:27;;;;;;;4.90;2.42;;;16.20;99.90;;;;;;5070692;28;20055;-80
2023/08/02 09:22:53;;;;;;;6.00;2.60;;;16.20;99.90;;;;;;5072065;28;20147;-80
2023/08/02 09:25:29;;;;;;;4.85;3.10;;;16.20;99.90;;;;;;5071986;28;20145;-81
2023/08/02 09:27:56;;;;;;;5.65;2.97;;;16.20;99.90;;;;;;5072330;28;20032;-81
2023/08/02 09:30:27;;;;;;;6.10;2.92;;;16.30;99.90;;;;;;5070583;28;20128;-81
2023/08/02 09:33:02;;;;;;;5.97;3.22;;;16.40;99.90;;;;;;5070879;28;20044;-80
2023/08/02 09:35:28;;;;;;;4.65;2.53;;;16.50;99.90;;;;;;5070606;28;20467;-79
2023/08/02 09:37:53;;;;;;;5.57;2.67;;;16.50;99.90;;;;;;5071890;28;20051;-79
2023/08/02 09:40:32;;;;;;;4.75;2.92;;;16.50;99.90;;;;;;5070056;28;20041;-80
2023/08/02 09:42:58;;;;;;;4.18;2.65;;;16.50;99.90;;;;;;5072276;28;20045;-80
2023/08/02 09:45:32;;;;;;;4.22;2.22;;;16.40;99.90;;;;;;5072266;28;20484;-79
2023/08/02 09:47:57;;;;;;;5.03;2.25;;;16.40;99.90;;;;;;5074429;28;20044;-81
2023/08/02 09:50:23;;;;;;;3.80;2.78;;;16.30;99.90;;;;;;5074721;28;20037;-78
2023/08/02 09:52:49;;;;;;;3.95;2.20;;;16.30;99.90;;;;;;5074944;28;20094;-78
2023/08/02 09:55:14;;;;;;;3.35;2.13;;;16.40;99.90;;;;;;5074537;28;20041;-79
2023/08/02 09:57:45;;;;;;;4.40;2.47;;;16.40;99.90;;;;;;5075628;28;20188;-79
2023/08/02 10:00:11;;;;;;;4.43;2.50;;;16.40;99.90;;;;;;5074647;28;20499;-77
2023/08/02 10:02:38;;;;;;;3.60;2.30;;;16.30;99.90;;;;;;5074011;28;20194;-78
2023/08/02 10:05:12;;;;;;;3.97;2.60;;;16.40;99.90;;;;;;5074645;28;20036;-80
2023/08/02 10:07:53;;;;;;;3.42;2.30;;;16.30;99.90;;;;;;5075028;28;20555;-79
2023/08/02 10:10:25;;;;;;;4.85;2.15;;;16.30;99.90;;;;;;5074376;28;20659;-89
2023/08/02 10:13:21;;;;;;;4.32;2.50;;;16.30;99.90;;;;;;5074592;28;20048;-77
2023/08/02 10:15:49;;;;;;;3.90;2.05;;;16.30;99.90;;;;;;5075388;28;20052;-75
2023/08/02 10:18:16;;;;;;;3.55;2.35;;;16.40;99.90;;;;;;5075145;28;20055;-76
2023/08/02 10:20:43;;;;;;;4.75;2.15;;;16.40;99.90;;;;;;5074366;28;20389;-76
2023/08/02 10:23:09;;;;;;;3.67;2.75;;;16.40;99.90;;;;;;5075274;28;20408;-76
2023/08/02 10:25:35;;;;;;;4.07;2.10;;;16.40;99.90;;;;;;5074100;28;20044;-76
2023/08/02 10:28:02;;;;;;;3.20;2.08;;;16.40;99.90;;;;;;5075033;28;20048;-76
2023/08/02 10:30:29;;;;;;;2.95;2.22;;;16.40;99.90;;;;;;5073077;28;20045;-76
2023/08/02 10:33:14;;;;;;;3.50;1.95;;;16.40;99.90;;;;;;5074828;28;20048;-76
2023/08/02 10:36:02;;;;;;;3.17;2.15;;;16.40;99.90;;;;;;5074977;28;20057;-76
2023/08/02 10:38:39;;;;;;;3.90;2.08;;;16.50;99.90;;;;;;5058593;28;20055;-75
2023/08/02 10:41:07;;;;;;;3.33;1.95;;;16.60;99.90;;;;;;5073279;28;20095;-78
2023/08/02 10:43:33;;;;;;;3.10;1.80;;;16.60;99.90;;;;;;5075253;28;20052;-78
2023/08/02 10:46:21;;;;;;;2.65;1.83;;;16.70;99.90;;;;;;5073846;28;20044;-78
2023/08/02 10:48:46;;;;;;;3.20;1.92;;;16.70;99.90;;;;;;5073465;28;20044;-77
2023/08/02 10:51:30;;;;;;;3.35;1.90;;;16.60;99.90;;;;;;5073022;28;20041;-78
2023/08/02 10:54:15;;;;;;;2.50;1.70;;;16.60;99.90;;;;;;5073498;28;20052;-77
2023/08/02 10:56:54;;;;;;;2.13;1.57;;;16.60;99.90;;;;;;5074537;28;20044;-82
2023/08/02 10:59:23;;;;;;;2.67;1.70;;;16.60;99.90;;;;;;5074194;28;20044;-77
2023/08/02 11:02:12;;;;;;;2.40;1.60;;;16.60;99.90;;;;;;5073433;28;20120;-78
2023/08/02 11:04:44;;;;;;;2.38;1.75;;;16.60;99.90;;;;;;5072082;28;20052;-77
2023/08/02 11:07:16;;;;;;;2.40;1.42;;;16.60;99.90;;;;;;5069217;28;20562;-77
2023/08/02 11:09:42;;;;;;;2.42;1.20;;;16.70;99.90;;;;;;5068163;28;20048;-80
2023/08/02 11:12:28;;;;;;;1.90;1.15;;;16.80;99.90;;;;;;5063278;28;20768;-77
2023/08/02 11:14:53;;;;;;;2.40;1.27;;;16.90;99.90;;;;;;5053516;28;20036;-77
2023/08/02 11:17:23;;;;;;;1.38;0.90;;;16.90;99.90;;;;;;5068182;28;20547;-78
2023/08/02 11:19:51;;;;;;;3.15;1.23;;;17.00;99.90;;;;;;5054599;28;20514;-77
2023/08/02 11:22:17;;;;;;;1.58;1.17;;;17.00;99.90;;;;;;5072251;28;20493;-78
2023/08/02 11:24:45;;;;;;;1.60;0.90;;;17.00;99.90;;;;;;5070990;28;20209;-77
2023/08/02 11:27:17;;;;;;;1.50;0.95;;;17.00;99.90;;;;;;5070913;28;20049;-77
2023/08/02 11:29:57;;;;;;;1.65;0.80;;;17.10;99.90;;;;;;5072887;28;20044;-76
2023/08/02 11:32:22;;;;;;;1.58;0.85;;;17.10;99.90;;;;;;5072484;28;20048;-78
2023/08/02 11:34:48;;;;;;;2.10;1.02;;;17.20;99.90;;;;;;5071712;28;20052;-79
2023/08/02 11:37:15;;;;;;;1.98;0.82;;;17.30;99.90;;;;;;5071477;28;20051;-78
2023/08/02 11:39:50;;;;;;;2.25;1.20;;;17.40;99.90;;;;;;5054644;28;20048;-81
2023/08/02 11:42:16;;;;;;;2.55;0.95;;;17.50;99.90;;;;;;5071559;28;20405;-80
2023/08/02 11:44:45;;;;;;;1.30;0.80;;;17.60;99.90;;;;;;5073029;28;20044;-79
2023/08/02 11:47:11;;;;;;;1.40;0.73;;;17.70;99.90;;;;;;5072076;28;20131;-78
2023/08/02 11:49:50;;;;;;;1.60;0.95;;;17.80;99.90;;;;;;5071378;28;20549;-76
2023/08/02 11:52:26;;;;;;;2.00;1.08;;;17.70;99.90;;;;;;5071454;28;20463;-78
2023/08/02 11:54:53;;;;;;;1.60;0.90;;;17.80;99.90;;;;;;5072251;28;20052;-79
2023/08/02 11:57:21;;;;;;;1.85;1.08;;;17.80;99.90;;;;;;5072120;28;20102;-80
2023/08/02 11:59:48;;;;;;;1.52;0.80;;;17.80;99.90;;;;;;5071418;28;20063;-81
2023/08/02 12:02:31;;;;;;;1.60;0.90;;;17.90;99.90;;;;;;5070973;28;20059;-77
2023/08/02 12:05:05;;;;;;;2.08;1.30;;;18.20;99.90;;;;;;5063877;28;20120;-74
2023/08/02 12:07:32;;;;;;;2.65;1.40;;;18.30;99.90;;;;;;5072798;28;20393;-75
2023/08/02 12:09:58;;;;;;;1.85;1.30;;;18.60;99.90;;;;;;5072390;28;20052;-75
2023/08/02 12:12:32;;;;;;;2.47;1.38;;;18.80;99.90;;;;;;5074486;28;20500;-77
2023/08/02 12:14:58;;;;;;;1.73;1.20;;;19.10;99.90;;;;;;5074450;28;20047;-76
2023/08/02 12:17:25;;;;;;;2.10;1.30;;;19.10;99.90;;;;;;5075082;28;20362;-78
2023/08/02 12:19:51;;;;;;;1.90;1.23;;;19.20;99.90;;;;;;5072857;28;20546;-79
2023/08/02 12:22:19;;;;;;;2.10;1.20;;;19.30;99.90;;;;;;5071834;28;20131;-78
2023/08/02 12:24:45;;;;;;;1.80;1.20;;;19.40;99.90;;;;;;5073274;28;20049;-79
2023/08/02 12:27:20;;;;;;;2.78;1.70;;;19.50;99.90;;;;;;5072273;28;20044;-76
2023/08/02 12:29:47;;;;;;;2.08;1.60;;;19.80;99.90;;;;;;5072928;28;20048;-76
2023/08/02 12:32:39;;;;;;;2.35;1.80;;;19.90;99.90;;;;;;5071372;28;20548;-77
2023/08/02 12:35:06;;;;;;;1.98;1.40;;;20.00;99.90;;;;;;5070632;28;20080;-79
2023/08/02 12:37:32;;;;;;;2.13;1.70;;;20.00;99.90;;;;;;5072208;28;20056;-79
2023/08/02 12:39:58;;;;;;;3.22;1.90;;;20.10;99.90;;;;;;5071493;28;20136;-79
2023/08/02 12:42:24;;;;;;;2.58;1.80;;;20.30;99.90;;;;;;5054572;28;20123;-78
2023/08/02 12:44:49;;;;;;;2.40;2.03;;;20.20;99.90;;;;;;5072627;28;20127;-76
2023/08/02 12:47:15;;;;;;;2.95;2.03;;;20.00;99.90;;;;;;5071928;28;20037;-76